RYR8ZQ LOWW-LIME
Flight info
| Callsign | RYR8ZQ |
|---|---|
| Flight time | 0h 56m |
| Altitude | 34000 |
| Route | OSPEN DCT ABRUK DCT SETAL DCT DETSA/N0450F330 DCT RENTA/N0379F190 M984 LUSIL T772 EKLIB |
| Aircraft | B738/M-SDE2E3FGHIRWXY/LB1 |
Departure
| Time | 2026-04-24 14:36 |
|---|---|
| Airport | Vienna International Airport (LOWW) |
Arrival
| Time | 2026-04-24 15:32 |
|---|---|
| Airport | Il Caravaggio International Airport (LIME) |
| Time | Latitude | Longitude | Altitude | Speed | Heading |
|---|---|---|---|---|---|
| 2026-04-24 14:15 | 48.11975 | 16.55403 | 583 ft | 0 kts | 295° |
| 2026-04-24 14:30 | 48.11977 | 16.55398 | 583 ft | 0 kts | 295° |
| 2026-04-24 14:31 | 48.11982 | 16.55382 | 583 ft | 2 kts | 295° |
| 2026-04-24 14:31 | 48.11987 | 16.55362 | 583 ft | 3 kts | 278° |
| 2026-04-24 14:31 | 48.11941 | 16.55317 | 583 ft | 9 kts | 163° |
| 2026-04-24 14:31 | 48.11889 | 16.55412 | 583 ft | 13 kts | 143° |
| 2026-04-24 14:32 | 48.11808 | 16.55452 | 583 ft | 14 kts | 121° |
| 2026-04-24 14:32 | 48.11755 | 16.55600 | 583 ft | 17 kts | 116° |
| 2026-04-24 14:32 | 48.11693 | 16.55786 | 583 ft | 22 kts | 115° |
| 2026-04-24 14:32 | 48.11618 | 16.56014 | 587 ft | 26 kts | 117° |
| 2026-04-24 14:33 | 48.11540 | 16.56259 | 592 ft | 26 kts | 115° |
| 2026-04-24 14:33 | 48.11460 | 16.56503 | 599 ft | 26 kts | 116° |
| 2026-04-24 14:33 | 48.11375 | 16.56764 | 603 ft | 26 kts | 116° |
| 2026-04-24 14:33 | 48.11303 | 16.56985 | 605 ft | 20 kts | 116° |
| 2026-04-24 14:34 | 48.11248 | 16.57156 | 605 ft | 16 kts | 116° |
| 2026-04-24 14:34 | 48.11174 | 16.57227 | 603 ft | 13 kts | 197° |
| 2026-04-24 14:34 | 48.11096 | 16.57176 | 603 ft | 11 kts | 206° |
| 2026-04-24 14:34 | 48.11052 | 16.57139 | 603 ft | 2 kts | 235° |
| 2026-04-24 14:35 | 48.11056 | 16.57100 | 603 ft | 3 kts | 296° |
| 2026-04-24 14:35 | 48.11088 | 16.57001 | 605 ft | 36 kts | 296° |
| 2026-04-24 14:35 | 48.11330 | 16.56252 | 592 ft | 120 kts | 296° |
| 2026-04-24 14:35 | 48.11795 | 16.54836 | 756 ft | 172 kts | 295° |
| 2026-04-24 14:36 | 48.12225 | 16.53207 | 1664 ft | 173 kts | 274° |
| 2026-04-24 14:36 | 48.11729 | 16.51536 | 2095 ft | 197 kts | 224° |
| 2026-04-24 14:36 | 48.10496 | 16.50314 | 2485 ft | 226 kts | 217° |
| 2026-04-24 14:36 | 48.09156 | 16.48859 | 3021 ft | 248 kts | 220° |
| 2026-04-24 14:37 | 48.07761 | 16.47267 | 3803 ft | 262 kts | 221° |
| 2026-04-24 14:37 | 48.06342 | 16.45473 | 4776 ft | 268 kts | 224° |
| 2026-04-24 14:37 | 48.04936 | 16.43617 | 5252 ft | 279 kts | 224° |
| 2026-04-24 14:37 | 48.03463 | 16.41689 | 6347 ft | 279 kts | 224° |
| 2026-04-24 14:38 | 48.02043 | 16.39836 | 7430 ft | 279 kts | 224° |
| 2026-04-24 14:38 | 48.00569 | 16.37909 | 8380 ft | 282 kts | 224° |
| 2026-04-24 14:38 | 47.99104 | 16.35998 | 9326 ft | 285 kts | 224° |
| 2026-04-24 14:38 | 47.97615 | 16.34055 | 10208 ft | 288 kts | 223° |
| 2026-04-24 14:39 | 47.96069 | 16.32007 | 10646 ft | 309 kts | 225° |
| 2026-04-24 14:39 | 47.94542 | 16.29584 | 10984 ft | 329 kts | 230° |
| 2026-04-24 14:39 | 47.92984 | 16.26926 | 11331 ft | 349 kts | 230° |
| 2026-04-24 14:39 | 47.91356 | 16.24194 | 12053 ft | 356 kts | 229° |
| 2026-04-24 14:40 | 47.89704 | 16.21441 | 12773 ft | 361 kts | 230° |
| 2026-04-24 14:40 | 47.88025 | 16.18643 | 13588 ft | 363 kts | 230° |
| 2026-04-24 14:40 | 47.86343 | 16.15847 | 14361 ft | 366 kts | 231° |
| 2026-04-24 14:40 | 47.84642 | 16.13021 | 15085 ft | 369 kts | 231° |
| 2026-04-24 14:41 | 47.83980 | 16.11923 | 15377 ft | 370 kts | 231° |
| 2026-04-24 14:41 | 47.83347 | 16.10868 | 15602 ft | 372 kts | 230° |
| 2026-04-24 14:41 | 47.81617 | 16.07940 | 16096 ft | 381 kts | 230° |
| 2026-04-24 14:41 | 47.79824 | 16.04968 | 16773 ft | 384 kts | 230° |
| 2026-04-24 14:42 | 47.78645 | 16.03029 | 17140 ft | 388 kts | 230° |
| 2026-04-24 14:42 | 47.76212 | 15.99016 | 17938 ft | 393 kts | 230° |
| 2026-04-24 14:42 | 47.74377 | 15.95990 | 18502 ft | 398 kts | 230° |
| 2026-04-24 14:42 | 47.72510 | 15.92911 | 19071 ft | 401 kts | 230° |
| 2026-04-24 14:43 | 47.70623 | 15.89801 | 19614 ft | 405 kts | 230° |
| 2026-04-24 14:43 | 47.68751 | 15.86720 | 20139 ft | 409 kts | 230° |
| 2026-04-24 14:43 | 47.66822 | 15.83546 | 20654 ft | 413 kts | 230° |
| 2026-04-24 14:43 | 47.64886 | 15.80367 | 21154 ft | 416 kts | 230° |
| 2026-04-24 14:44 | 47.62938 | 15.77170 | 21636 ft | 420 kts | 230° |
| 2026-04-24 14:44 | 47.60975 | 15.73954 | 22101 ft | 424 kts | 230° |
| 2026-04-24 14:44 | 47.58989 | 15.70702 | 22560 ft | 427 kts | 230° |
| 2026-04-24 14:44 | 47.57002 | 15.67454 | 22996 ft | 430 kts | 230° |
| 2026-04-24 14:45 | 47.54961 | 15.64122 | 23432 ft | 434 kts | 230° |
| 2026-04-24 14:45 | 47.52955 | 15.60850 | 23844 ft | 437 kts | 230° |
| 2026-04-24 14:45 | 47.50919 | 15.57478 | 24245 ft | 439 kts | 232° |
| 2026-04-24 14:45 | 47.49188 | 15.53724 | 24599 ft | 440 kts | 245° |
| 2026-04-24 14:46 | 47.48027 | 15.49558 | 25055 ft | 439 kts | 253° |
| 2026-04-24 14:46 | 47.47114 | 15.45201 | 25376 ft | 443 kts | 256° |
| 2026-04-24 14:46 | 47.46260 | 15.40825 | 25744 ft | 446 kts | 256° |
| 2026-04-24 14:46 | 47.45398 | 15.36447 | 26105 ft | 448 kts | 256° |
| 2026-04-24 14:47 | 47.44815 | 15.33492 | 26322 ft | 450 kts | 255° |
| 2026-04-24 14:47 | 47.43636 | 15.27510 | 26773 ft | 454 kts | 255° |
| 2026-04-24 14:47 | 47.42756 | 15.23051 | 27091 ft | 457 kts | 255° |
| 2026-04-24 14:47 | 47.41862 | 15.18520 | 27412 ft | 459 kts | 255° |
| 2026-04-24 14:48 | 47.40962 | 15.13968 | 27713 ft | 462 kts | 255° |
| 2026-04-24 14:48 | 47.40069 | 15.09457 | 28011 ft | 464 kts | 255° |
| 2026-04-24 14:48 | 47.39156 | 15.04856 | 28298 ft | 466 kts | 255° |
| 2026-04-24 14:48 | 47.38241 | 15.00255 | 28578 ft | 469 kts | 255° |
| 2026-04-24 14:49 | 47.37317 | 14.95616 | 28855 ft | 471 kts | 255° |
| 2026-04-24 14:49 | 47.36383 | 14.90933 | 29152 ft | 472 kts | 255° |
| 2026-04-24 14:49 | 47.35451 | 14.86279 | 29460 ft | 473 kts | 255° |
| 2026-04-24 14:49 | 47.34519 | 14.81630 | 29779 ft | 474 kts | 255° |
| 2026-04-24 14:50 | 47.33583 | 14.76972 | 30101 ft | 474 kts | 255° |
| 2026-04-24 14:50 | 47.32647 | 14.72323 | 30425 ft | 474 kts | 255° |
| 2026-04-24 14:50 | 47.31704 | 14.67655 | 30750 ft | 474 kts | 255° |
| 2026-04-24 14:50 | 47.30764 | 14.63010 | 31074 ft | 474 kts | 255° |
| 2026-04-24 14:51 | 47.29829 | 14.58401 | 31387 ft | 474 kts | 255° |
| 2026-04-24 14:51 | 47.28872 | 14.53693 | 31709 ft | 474 kts | 255° |
| 2026-04-24 14:51 | 47.27935 | 14.49093 | 32022 ft | 473 kts | 255° |
| 2026-04-24 14:51 | 47.26986 | 14.44446 | 32328 ft | 473 kts | 255° |
| 2026-04-24 14:52 | 47.26040 | 14.39824 | 32631 ft | 473 kts | 255° |
| 2026-04-24 14:52 | 47.25078 | 14.35140 | 32931 ft | 472 kts | 255° |
| 2026-04-24 14:52 | 47.24127 | 14.30514 | 33217 ft | 472 kts | 254° |
| 2026-04-24 14:52 | 47.23188 | 14.25953 | 33503 ft | 472 kts | 254° |
| 2026-04-24 14:53 | 47.22226 | 14.21301 | 33793 ft | 472 kts | 254° |
| 2026-04-24 14:53 | 47.21264 | 14.16662 | 33990 ft | 472 kts | 254° |
| 2026-04-24 14:53 | 47.20311 | 14.12073 | 34001 ft | 472 kts | 254° |
| 2026-04-24 14:54 | 47.18389 | 14.02865 | 33999 ft | 466 kts | 254° |
| 2026-04-24 14:54 | 47.16491 | 13.93805 | 34000 ft | 465 kts | 254° |
| 2026-04-24 14:55 | 47.14897 | 13.86228 | 34000 ft | 465 kts | 254° |
| 2026-04-24 14:55 | 47.12655 | 13.75620 | 34000 ft | 466 kts | 254° |
| 2026-04-24 14:56 | 47.10727 | 13.66540 | 34000 ft | 466 kts | 254° |
| 2026-04-24 14:56 | 47.08794 | 13.57479 | 34000 ft | 465 kts | 254° |
| 2026-04-24 14:57 | 47.06856 | 13.48438 | 34000 ft | 465 kts | 254° |
| 2026-04-24 14:57 | 47.04898 | 13.39338 | 34000 ft | 465 kts | 254° |
| 2026-04-24 14:58 | 47.02938 | 13.30272 | 33999 ft | 466 kts | 253° |
| 2026-04-24 14:58 | 47.00976 | 13.21228 | 33999 ft | 466 kts | 253° |
| 2026-04-24 14:59 | 46.99017 | 13.12238 | 33999 ft | 466 kts | 253° |
| 2026-04-24 14:59 | 46.97040 | 13.03213 | 34000 ft | 466 kts | 253° |
| 2026-04-24 15:00 | 46.95047 | 12.94149 | 34000 ft | 466 kts | 253° |
| 2026-04-24 15:00 | 46.93057 | 12.85143 | 34000 ft | 466 kts | 253° |
| 2026-04-24 15:01 | 46.91048 | 12.76089 | 34000 ft | 466 kts | 253° |
| 2026-04-24 15:01 | 46.89044 | 12.67098 | 33999 ft | 465 kts | 253° |
| 2026-04-24 15:02 | 46.87049 | 12.58180 | 33999 ft | 465 kts | 253° |
| 2026-04-24 15:02 | 46.85024 | 12.49171 | 33999 ft | 466 kts | 253° |
| 2026-04-24 15:03 | 46.83340 | 12.41709 | 33999 ft | 466 kts | 253° |
| 2026-04-24 15:03 | 46.80970 | 12.31279 | 33999 ft | 466 kts | 252° |
| 2026-04-24 15:04 | 46.78413 | 12.22636 | 34001 ft | 467 kts | 244° |
| 2026-04-24 15:04 | 46.75490 | 12.14181 | 34000 ft | 467 kts | 244° |
| 2026-04-24 15:05 | 46.72590 | 12.05733 | 34000 ft | 467 kts | 244° |
| 2026-04-24 15:05 | 46.69681 | 11.97294 | 34000 ft | 467 kts | 244° |
| 2026-04-24 15:06 | 46.66773 | 11.88885 | 34000 ft | 467 kts | 244° |
| 2026-04-24 15:06 | 46.63846 | 11.80449 | 33999 ft | 467 kts | 244° |
| 2026-04-24 15:07 | 46.60917 | 11.72035 | 33999 ft | 467 kts | 244° |
| 2026-04-24 15:07 | 46.57990 | 11.63650 | 33999 ft | 467 kts | 244° |
| 2026-04-24 15:08 | 46.55058 | 11.55281 | 33999 ft | 467 kts | 244° |
| 2026-04-24 15:08 | 46.52095 | 11.46852 | 34000 ft | 467 kts | 244° |
| 2026-04-24 15:09 | 46.49139 | 11.38468 | 34000 ft | 467 kts | 244° |
| 2026-04-24 15:09 | 46.46190 | 11.30125 | 33999 ft | 467 kts | 244° |
| 2026-04-24 15:10 | 46.43224 | 11.21759 | 34000 ft | 467 kts | 244° |
| 2026-04-24 15:10 | 46.40252 | 11.13404 | 33999 ft | 467 kts | 243° |
| 2026-04-24 15:11 | 46.37278 | 11.05072 | 34000 ft | 467 kts | 243° |
| 2026-04-24 15:11 | 46.34301 | 10.96761 | 33843 ft | 470 kts | 244° |
| 2026-04-24 15:11 | 46.32779 | 10.92519 | 33295 ft | 473 kts | 244° |
| 2026-04-24 15:12 | 46.31284 | 10.88362 | 32650 ft | 469 kts | 244° |
| 2026-04-24 15:12 | 46.28348 | 10.80047 | 31249 ft | 462 kts | 245° |
| 2026-04-24 15:12 | 46.26929 | 10.75942 | 30557 ft | 462 kts | 245° |
| 2026-04-24 15:13 | 46.25483 | 10.71772 | 29857 ft | 464 kts | 245° |
| 2026-04-24 15:13 | 46.24044 | 10.67639 | 29163 ft | 465 kts | 245° |
| 2026-04-24 15:13 | 46.22597 | 10.63491 | 28465 ft | 466 kts | 245° |
| 2026-04-24 15:13 | 46.21136 | 10.59310 | 27763 ft | 467 kts | 245° |
| 2026-04-24 15:14 | 46.19681 | 10.55155 | 27065 ft | 467 kts | 245° |
| 2026-04-24 15:14 | 46.18222 | 10.50996 | 26367 ft | 467 kts | 245° |
| 2026-04-24 15:14 | 46.16756 | 10.46824 | 25666 ft | 467 kts | 245° |
| 2026-04-24 15:14 | 46.15293 | 10.42671 | 24968 ft | 467 kts | 245° |
| 2026-04-24 15:15 | 46.13832 | 10.38527 | 24267 ft | 464 kts | 245° |
| 2026-04-24 15:15 | 46.12375 | 10.34403 | 23559 ft | 457 kts | 244° |
| 2026-04-24 15:15 | 46.10937 | 10.30340 | 22851 ft | 450 kts | 244° |
| 2026-04-24 15:15 | 46.09529 | 10.26367 | 22150 ft | 444 kts | 244° |
| 2026-04-24 15:16 | 46.08145 | 10.22466 | 21454 ft | 439 kts | 244° |
| 2026-04-24 15:16 | 46.06775 | 10.18611 | 20757 ft | 434 kts | 244° |
| 2026-04-24 15:16 | 46.05284 | 10.14855 | 20052 ft | 430 kts | 238° |
| 2026-04-24 15:16 | 46.03514 | 10.11438 | 19358 ft | 426 kts | 230° |
| 2026-04-24 15:17 | 46.01395 | 10.08511 | 18711 ft | 423 kts | 220° |
| 2026-04-24 15:17 | 45.99079 | 10.05937 | 18064 ft | 419 kts | 218° |
| 2026-04-24 15:17 | 45.96778 | 10.03431 | 17404 ft | 415 kts | 219° |
| 2026-04-24 15:17 | 45.94516 | 10.00946 | 16730 ft | 411 kts | 219° |
| 2026-04-24 15:18 | 45.92272 | 9.98485 | 16055 ft | 406 kts | 219° |
| 2026-04-24 15:18 | 45.90058 | 9.96063 | 15383 ft | 401 kts | 219° |
| 2026-04-24 15:18 | 45.87844 | 9.93641 | 14702 ft | 396 kts | 219° |
| 2026-04-24 15:18 | 45.85669 | 9.91258 | 14025 ft | 392 kts | 219° |
| 2026-04-24 15:19 | 45.83517 | 9.88906 | 13351 ft | 387 kts | 219° |
| 2026-04-24 15:19 | 45.81405 | 9.86605 | 12834 ft | 377 kts | 219° |
| 2026-04-24 15:19 | 45.79369 | 9.84391 | 12402 ft | 365 kts | 219° |
| 2026-04-24 15:19 | 45.77380 | 9.82230 | 11975 ft | 354 kts | 219° |
| 2026-04-24 15:20 | 45.75458 | 9.80143 | 11550 ft | 344 kts | 219° |
| 2026-04-24 15:20 | 45.73591 | 9.78118 | 11130 ft | 335 kts | 219° |
| 2026-04-24 15:20 | 45.71761 | 9.76136 | 10730 ft | 327 kts | 219° |
| 2026-04-24 15:20 | 45.69964 | 9.74198 | 10329 ft | 320 kts | 219° |
| 2026-04-24 15:21 | 45.68199 | 9.72299 | 9926 ft | 313 kts | 219° |
| 2026-04-24 15:21 | 45.66497 | 9.70473 | 9531 ft | 308 kts | 219° |
| 2026-04-24 15:21 | 45.64762 | 9.68714 | 9125 ft | 304 kts | 211° |
| 2026-04-24 15:21 | 45.62762 | 9.67857 | 8726 ft | 304 kts | 187° |
| 2026-04-24 15:22 | 45.61206 | 9.67800 | 8440 ft | 302 kts | 182° |
| 2026-04-24 15:22 | 45.59627 | 9.67795 | 8138 ft | 299 kts | 182° |
| 2026-04-24 15:22 | 45.57583 | 9.67841 | 7731 ft | 296 kts | 172° |
| 2026-04-24 15:23 | 45.54547 | 9.71269 | 7097 ft | 285 kts | 111° |
| 2026-04-24 15:23 | 45.53637 | 9.76604 | 6607 ft | 271 kts | 103° |
| 2026-04-24 15:23 | 45.53243 | 9.79178 | 6379 ft | 264 kts | 103° |
| 2026-04-24 15:24 | 45.52027 | 9.86713 | 5720 ft | 257 kts | 103° |
| 2026-04-24 15:25 | 45.51956 | 9.90888 | 5430 ft | 255 kts | 74° |
| 2026-04-24 15:25 | 45.53218 | 9.96423 | 5014 ft | 246 kts | 57° |
| 2026-04-24 15:26 | 45.57359 | 9.99836 | 4254 ft | 226 kts | 14° |
| 2026-04-24 15:27 | 45.60919 | 9.97024 | 3701 ft | 189 kts | 313° |
| 2026-04-24 15:27 | 45.62710 | 9.92203 | 3508 ft | 187 kts | 287° |
| 2026-04-24 15:28 | 45.64039 | 9.85369 | 2628 ft | 172 kts | 285° |
| 2026-04-24 15:29 | 45.64590 | 9.82430 | 2212 ft | 147 kts | 286° |
| 2026-04-24 15:30 | 45.65383 | 9.78168 | 1621 ft | 147 kts | 286° |
| 2026-04-24 15:31 | 45.66351 | 9.73036 | 901 ft | 144 kts | 285° |
| 2026-04-24 15:32 | 45.66850 | 9.69910 | 781 ft | 12 kts | 241° |
| 2026-04-24 15:33 | 45.66717 | 9.70081 | 778 ft | 5 kts | 160° |
| 2026-04-24 15:33 | 45.66638 | 9.70059 | 776 ft | 0 kts | 195° |